Cambridge, Ohio
Current Conditions -  °F | °C
As of 6:53 AM on Saturday 25 Oct 2014 (Local Time) from KZZV Reporting Station
Overcast Overcast  
Wind Chill: 39°   Ceiling: 10000
Heat Index: 39°   Visibility: 9mi
Dew Point: 37°   Wind: 3mph
Humidity: 93%   Direction: 180°S
Pressure: 29.99"   Gusts: NA
Location:  40.02°N, 81.59°W
Report Text: KZZV 251053Z AUTO 18003KT 9SM OVC100 04/03 A2999 RMK AO2 SLP159 T00390028
Loading
Personal Weather Stations






























Interactive Weather Map
Tropical Storm Tracking
New forecast layout! Learn more

10-Day Weather Forecast

Advertisements
Track Severe Weather on mobile